Terminal Aerodrome Forecast
Issued by NWS Upton, NY

Home | Current Version | Previous Version | Text Only | Print | Product List | Glossary On
Versions: 1 2 3 4 5 6 7 8 9 10 11 12 13 14 15 16 17 18 19 20 21 22 23 24 25 26 27 28 29 30 31 32
000
FTUS41 KOKX 212026 AAB
TAFISP
TAF AMD
KISP 212026Z 2120/2218 22012KT P6SM FEW050 BKN250
     FM220000 21010KT P6SM FEW050 SCT250
     FM220200 21008KT P6SM FEW050 SCT250
     FM220600 21006KT P6SM SCT020 BKN035
     FM221000 21006KT 6SM BR BKN015
     FM221400 22010KT P6SM BKN030
     FM221600 21013G20KT P6SM SCT040 BKN250=

USA.gov is the U.S. government's official web portal to all federal, state and local government web resources and services.